You are listening to:
EHAM Tower (18L/36R-22/04) - Amsterdam, Netherlands

EHAM 251755Z 33010KT 300V360 CAVOK 17/10 Q1034 NOSIG

If stream doesn't start automatically press the play button
If stream stops then reload player then press play